createdAt,value
2019-01-21T00:00:51.806Z,0
2019-01-21T00:01:50.202Z,0
2019-01-21T00:02:48.750Z,0
2019-01-21T00:03:47.527Z,0
2019-01-21T00:04:46.162Z,0
2019-01-21T00:05:44.711Z,0
2019-01-21T00:06:43.306Z,0
2019-01-21T00:07:42.070Z,0
2019-01-21T00:08:40.596Z,0
2019-01-21T00:09:39.135Z,0
2019-01-21T00:12:19.758Z,0
2019-01-21T00:13:18.448Z,0
2019-01-21T00:14:16.992Z,0
2019-01-21T00:15:15.693Z,0
2019-01-21T00:16:14.246Z,0
2019-01-21T00:17:12.990Z,0
2019-01-21T00:18:11.581Z,0
2019-01-21T00:19:10.248Z,0
2019-01-21T00:20:08.784Z,0
2019-01-21T00:21:07.448Z,0
2019-01-21T00:23:47.778Z,0
2019-01-21T00:24:46.318Z,0
2019-01-21T00:25:44.876Z,0
2019-01-21T00:26:43.607Z,0
2019-01-21T00:27:42.291Z,0
2019-01-21T00:28:40.835Z,0
2019-01-21T00:29:39.493Z,0
2019-01-21T00:30:38.251Z,0
2019-01-21T00:31:36.766Z,0
2019-01-21T00:32:35.292Z,0
2019-01-21T00:35:15.661Z,0
2019-01-21T00:36:14.297Z,0
2019-01-21T00:37:12.815Z,0
2019-01-21T00:38:11.471Z,0
2019-01-21T00:40:52.100Z,0
2019-01-21T00:41:50.788Z,0
2019-01-21T00:42:49.417Z,0
2019-01-21T00:43:48.219Z,0
2019-01-21T00:44:46.802Z,0
2019-01-21T00:45:45.331Z,0
2019-01-21T00:46:43.894Z,0
2019-01-21T00:47:43.096Z,0
2019-01-21T00:48:41.855Z,0
2019-01-21T00:49:40.407Z,0
2019-01-21T00:50:38.905Z,0
2019-01-21T00:51:37.447Z,0
2019-01-21T00:52:35.990Z,0
2019-01-21T00:53:34.698Z,0
2019-01-21T00:54:33.347Z,0
2019-01-21T00:55:32.134Z,0
2019-01-21T00:56:30.653Z,0
2019-01-21T00:57:29.208Z,0
2019-01-21T00:58:28.019Z,0
2019-01-21T00:59:26.646Z,0
2019-01-21T01:00:25.177Z,0
2019-01-21T01:01:23.700Z,0
2019-01-21T01:02:22.217Z,0
2019-01-21T01:03:20.795Z,0
2019-01-21T01:04:19.476Z,0
2019-01-21T01:05:18.135Z,0
2019-01-21T01:06:16.646Z,0
2019-01-21T01:07:15.344Z,0
2019-01-21T01:08:14.233Z,0
2019-01-21T01:09:12.756Z,0
2019-01-21T01:10:11.324Z,0
2019-01-21T01:11:09.865Z,0
2019-01-21T01:12:08.456Z,0
2019-01-21T01:13:06.994Z,0
2019-01-21T01:14:05.645Z,0
2019-01-21T01:15:04.335Z,0
2019-01-21T01:17:44.570Z,0
2019-01-21T01:18:43.088Z,0
2019-01-21T01:19:41.751Z,0
2019-01-21T01:20:40.289Z,0
2019-01-21T01:21:38.823Z,0
2019-01-21T01:22:37.380Z,0
2019-01-21T01:23:35.969Z,0
2019-01-21T01:24:34.543Z,0
2019-01-21T01:25:33.201Z,0
2019-01-21T01:26:32.091Z,0
2019-01-21T01:27:30.673Z,0
2019-01-21T01:28:29.248Z,0
2019-01-21T01:29:27.931Z,0
2019-01-21T01:30:26.486Z,0
2019-01-21T01:31:25.031Z,0
2019-01-21T01:32:23.587Z,0
2019-01-21T01:33:22.112Z,0
2019-01-21T01:34:20.679Z,0
2019-01-21T01:47:06.139Z,0
2019-01-21T01:48:04.676Z,0
2019-01-21T01:49:03.247Z,0
2019-01-21T01:50:01.791Z,0
2019-01-21T01:51:00.335Z,0
2019-01-21T01:51:58.854Z,0
2019-01-21T01:52:57.410Z,0
2019-01-21T01:53:55.939Z,0
2019-01-21T01:54:54.495Z,0
2019-01-21T01:55:53.073Z,0
2019-01-21T01:56:51.798Z,0
2019-01-21T01:57:50.365Z,0
2019-01-21T01:58:50.040Z,0
2019-01-21T01:59:48.605Z,0
2019-01-21T02:00:47.115Z,0
2019-01-21T02:01:45.851Z,0
2019-01-21T02:04:26.322Z,0
2019-01-21T02:05:24.858Z,0
2019-01-21T02:06:23.749Z,0
2019-01-21T02:07:22.375Z,0
2019-01-21T02:08:20.926Z,0
2019-01-21T02:09:19.737Z,0
2019-01-21T02:10:18.475Z,0
2019-01-21T02:11:17.001Z,0
2019-01-21T02:12:15.877Z,0
2019-01-21T02:13:14.406Z,0
2019-01-21T02:14:12.960Z,0
2019-01-21T02:15:11.706Z,0
2019-01-21T02:16:10.255Z,0
2019-01-21T02:17:08.843Z,0
2019-01-21T02:18:07.398Z,0
2019-01-21T02:19:06.242Z,0
2019-01-21T02:20:04.760Z,0
2019-01-21T02:21:03.538Z,0
2019-01-21T02:32:24.503Z,0
2019-01-21T02:33:23.062Z,0
2019-01-21T02:34:21.728Z,0
2019-01-21T02:35:20.362Z,0
2019-01-21T02:36:18.872Z,0
2019-01-21T02:37:17.573Z,0
2019-01-21T02:38:16.367Z,0
2019-01-21T02:39:14.908Z,0
2019-01-21T02:40:13.433Z,0
2019-01-21T02:41:11.985Z,0
2019-01-21T02:42:10.517Z,0
2019-01-21T02:43:09.064Z,0
2019-01-21T02:44:07.593Z,0
2019-01-21T02:45:06.143Z,0
2019-01-21T02:46:04.714Z,0
2019-01-21T02:47:03.420Z,0
2019-01-21T02:48:02.218Z,0
2019-01-21T02:49:00.757Z,0
2019-01-21T02:49:59.318Z,0
2019-01-21T02:50:57.969Z,0
2019-01-21T02:51:56.517Z,0
2019-01-21T02:52:55.065Z,0
2019-01-21T02:53:53.811Z,0
2019-01-21T02:54:52.359Z,0
2019-01-21T02:55:51.470Z,0
2019-01-21T02:56:50.152Z,0
2019-01-21T02:57:48.709Z,0
2019-01-21T02:58:47.219Z,0
2019-01-21T03:01:27.486Z,0
2019-01-21T03:02:26.082Z,0
2019-01-21T03:03:24.616Z,0
2019-01-21T03:04:23.149Z,0
2019-01-21T03:05:21.893Z,0
2019-01-21T03:06:20.557Z,0
2019-01-21T03:07:19.098Z,0
2019-01-21T03:08:17.788Z,0
2019-01-21T03:09:16.326Z,0
2019-01-21T03:10:14.844Z,0
2019-01-21T03:11:13.450Z,0
2019-01-21T03:13:53.674Z,0
2019-01-21T03:14:52.322Z,0
2019-01-21T03:15:50.892Z,0
2019-01-21T03:16:49.663Z,0
2019-01-21T03:17:48.358Z,0
2019-01-21T03:18:46.926Z,0
2019-01-21T03:19:45.473Z,0
2019-01-21T03:20:44.024Z,0
2019-01-21T03:21:42.565Z,0
2019-01-21T03:22:41.350Z,0
2019-01-21T03:23:40.136Z,0
2019-01-21T03:24:38.691Z,0
2019-01-21T03:25:37.344Z,0
2019-01-21T03:26:35.987Z,0
2019-01-21T03:27:34.515Z,0
2019-01-21T03:28:33.048Z,0
2019-01-21T03:29:31.599Z,0
2019-01-21T03:30:30.136Z,0
2019-01-21T03:33:51.644Z,0
2019-01-21T03:34:50.311Z,0
2019-01-21T03:35:48.996Z,0
2019-01-21T03:36:47.535Z,0
2019-01-21T03:37:46.138Z,0
2019-01-21T03:38:44.674Z,0
2019-01-21T03:39:43.389Z,0
2019-01-21T03:40:42.246Z,0
2019-01-21T03:41:40.791Z,0
2019-01-21T03:42:39.472Z,0
2019-01-21T03:43:38.134Z,0
2019-01-21T03:44:36.680Z,0
2019-01-21T03:45:35.226Z,0
2019-01-21T03:46:33.774Z,0
2019-01-21T03:47:32.311Z,0
2019-01-21T03:48:30.861Z,0
2019-01-21T03:49:29.507Z,0
2019-01-21T03:50:28.228Z,0
2019-01-21T03:51:26.775Z,0
2019-01-21T03:52:25.474Z,0
2019-01-21T03:53:24.188Z,0
2019-01-21T03:54:22.880Z,0
2019-01-21T03:55:21.413Z,0
2019-01-21T03:56:19.936Z,0
2019-01-21T03:57:18.475Z,0
2019-01-21T03:58:17.035Z,0
2019-01-21T03:59:15.754Z,0
2019-01-21T04:00:14.475Z,0
2019-01-21T04:01:13.090Z,0
2019-01-21T04:02:13.728Z,0
2019-01-21T04:03:12.348Z,0
2019-01-21T04:04:10.895Z,0
2019-01-21T04:05:09.448Z,0
2019-01-21T04:06:07.998Z,0
2019-01-21T04:07:06.557Z,0
2019-01-21T04:08:05.264Z,0
2019-01-21T04:09:04.097Z,0
2019-01-21T04:10:02.640Z,0
2019-01-21T04:11:01.173Z,0
2019-01-21T04:11:59.967Z,0
2019-01-21T04:12:58.510Z,0
2019-01-21T04:13:57.035Z,0
2019-01-21T04:14:56.504Z,0
2019-01-21T04:15:54.180Z,0
2019-01-21T04:16:52.720Z,0
2019-01-21T04:17:51.216Z,0
2019-01-21T04:18:49.737Z,0
2019-01-21T04:19:48.288Z,0
2019-01-21T04:20:46.816Z,0
2019-01-21T04:23:26.842Z,0
2019-01-21T04:24:29.011Z,0
2019-01-21T04:25:26.615Z,0
2019-01-21T04:26:25.218Z,0
2019-01-21T04:27:23.762Z,0
2019-01-21T04:28:22.306Z,0
2019-01-21T04:29:20.848Z,0
2019-01-21T04:30:19.412Z,0
2019-01-21T04:31:18.035Z,0
2019-01-21T04:52:04.596Z,0
2019-01-21T04:53:03.143Z,0
2019-01-21T04:54:01.817Z,0
2019-01-21T04:55:00.559Z,0
2019-01-21T04:55:59.265Z,0
2019-01-21T04:56:57.816Z,0
2019-01-21T04:57:56.371Z,0
2019-01-21T04:58:54.904Z,0
2019-01-21T04:59:53.688Z,0
2019-01-21T05:00:52.337Z,0
2019-01-21T05:01:50.887Z,0
2019-01-21T05:02:49.507Z,0
2019-01-21T05:03:49.900Z,0
2019-01-21T05:04:46.813Z,0
2019-01-21T05:05:45.370Z,0
2019-01-21T05:06:43.909Z,0
2019-01-21T05:07:42.440Z,0
2019-01-21T05:08:40.987Z,0
2019-01-21T05:09:39.512Z,0
2019-01-21T05:10:38.048Z,0
2019-01-21T05:11:36.749Z,0
2019-01-21T05:12:35.382Z,0
2019-01-21T05:13:34.193Z,0
2019-01-21T05:14:32.728Z,0
2019-01-21T05:17:13.189Z,0
2019-01-21T05:18:11.799Z,0
2019-01-21T05:19:10.469Z,0
2019-01-21T05:20:11.012Z,0
2019-01-21T05:21:09.834Z,0
2019-01-21T05:22:08.349Z,0
2019-01-21T05:23:06.918Z,0
2019-01-21T05:24:05.551Z,0
2019-01-21T05:25:04.079Z,0
2019-01-21T05:26:02.651Z,0
2019-01-21T05:27:01.231Z,0
2019-01-21T05:27:59.936Z,0
2019-01-21T05:28:58.492Z,0
2019-01-21T05:29:57.021Z,0
2019-01-21T05:30:58.542Z,0
2019-01-21T05:31:57.086Z,0
2019-01-21T05:34:37.207Z,0
2019-01-21T05:35:35.962Z,0
2019-01-21T05:38:57.820Z,0
2019-01-21T05:39:56.379Z,0
2019-01-21T05:40:54.989Z,0
2019-01-21T05:41:53.540Z,0
2019-01-21T05:42:52.073Z,0
2019-01-21T05:43:50.616Z,0
2019-01-21T05:46:23.616Z,0
2019-01-21T05:47:22.161Z,0
2019-01-21T05:48:20.705Z,0
2019-01-21T05:49:19.237Z,0
2019-01-21T05:50:17.760Z,0
2019-01-21T05:51:16.323Z,0
2019-01-21T05:52:14.871Z,0
2019-01-21T05:53:13.516Z,0
2019-01-21T05:54:12.131Z,0
2019-01-21T05:55:10.671Z,0
2019-01-21T05:56:09.369Z,0
2019-01-21T05:57:08.127Z,0
2019-01-21T05:58:06.901Z,0
2019-01-21T05:59:05.453Z,0
2019-01-21T06:00:04.236Z,0
2019-01-21T06:01:02.763Z,0
2019-01-21T06:02:01.285Z,0
2019-01-21T06:03:00.215Z,0
2019-01-21T06:03:58.993Z,0
2019-01-21T06:04:57.535Z,0
2019-01-21T06:05:56.067Z,0
2019-01-21T06:06:54.627Z,0
2019-01-21T06:07:53.296Z,0
2019-01-21T06:08:52.156Z,0
2019-01-21T06:09:50.698Z,0
2019-01-21T06:10:49.241Z,0
2019-01-21T06:11:47.989Z,0
2019-01-21T06:12:46.503Z,0
2019-01-21T06:13:45.045Z,0
2019-01-21T06:14:43.638Z,0
2019-01-21T06:15:42.162Z,0
2019-01-21T06:16:40.970Z,0
2019-01-21T06:17:39.532Z,0
2019-01-21T06:18:38.324Z,0
2019-01-21T06:19:36.851Z,0
2019-01-21T06:20:35.402Z,0
2019-01-21T06:21:34.064Z,0
2019-01-21T06:22:33.083Z,0
2019-01-21T06:23:31.833Z,0
2019-01-21T06:24:30.519Z,0
2019-01-21T06:25:29.066Z,0
2019-01-21T06:26:27.726Z,0
2019-01-21T06:27:26.362Z,0
2019-01-21T06:28:24.904Z,0
2019-01-21T06:29:23.458Z,0
2019-01-21T06:30:22.136Z,0
2019-01-21T06:31:20.752Z,0
2019-01-21T06:32:19.487Z,0
2019-01-21T06:33:18.352Z,0
2019-01-21T06:34:16.941Z,0
2019-01-21T06:35:15.449Z,0
2019-01-21T06:36:14.007Z,0
2019-01-21T06:37:12.547Z,0
2019-01-21T06:38:11.116Z,0
2019-01-21T06:39:10.431Z,0
2019-01-21T06:40:08.518Z,0
2019-01-21T06:41:07.062Z,0
2019-01-21T06:42:05.712Z,0
2019-01-21T06:43:04.457Z,0
2019-01-21T06:44:03.321Z,0
2019-01-21T06:46:38.362Z,0
2019-01-21T06:49:18.817Z,0
2019-01-21T06:50:17.372Z,0
2019-01-21T06:51:16.051Z,0
2019-01-21T06:52:14.627Z,0
2019-01-21T06:53:13.183Z,0
2019-01-21T06:54:11.699Z,0
2019-01-21T06:55:10.243Z,0
2019-01-21T06:56:08.771Z,0
2019-01-21T06:57:07.512Z,0
2019-01-21T07:17:37.345Z,5
2019-01-21T07:18:36.183Z,5
2019-01-21T07:19:34.724Z,5
2019-01-21T07:20:33.253Z,10
2019-01-21T07:21:32.050Z,10
2019-01-21T07:22:30.603Z,10
2019-01-21T07:23:29.142Z,10
2019-01-21T07:26:09.398Z,10
2019-01-21T07:27:08.264Z,10
2019-01-21T07:28:06.904Z,10
2019-01-21T07:29:05.500Z,15
2019-01-21T07:30:04.366Z,15
2019-01-21T07:31:02.767Z,15
2019-01-21T07:32:01.319Z,15
2019-01-21T07:34:41.792Z,15
2019-01-21T07:35:40.483Z,20
2019-01-21T07:55:43.072Z,35
2019-01-21T07:56:41.672Z,35
2019-01-21T07:57:40.215Z,35
2019-01-21T07:58:38.860Z,40
2019-01-21T07:59:37.688Z,40
2019-01-21T08:00:36.423Z,40
2019-01-21T08:01:34.966Z,40
2019-01-21T08:02:33.741Z,40
2019-01-21T08:03:32.344Z,40
2019-01-21T08:04:30.882Z,40
2019-01-21T08:05:29.724Z,40
2019-01-21T08:06:28.327Z,45
2019-01-21T08:07:26.842Z,35
2019-01-21T08:08:25.483Z,35
2019-01-21T08:09:24.234Z,40
2019-01-21T08:10:22.766Z,40
2019-01-21T08:11:21.329Z,40
2019-01-21T08:12:19.890Z,45
2019-01-21T08:13:18.443Z,45
2019-01-21T08:14:16.996Z,45
2019-01-21T08:15:15.624Z,50
2019-01-21T08:16:14.402Z,50
2019-01-21T08:17:12.967Z,45
2019-01-21T08:18:11.674Z,45
2019-01-21T08:19:10.438Z,45
2019-01-21T08:20:08.988Z,50
2019-01-21T08:21:07.507Z,50
2019-01-21T08:22:06.119Z,50
2019-01-21T08:23:04.694Z,50
2019-01-21T08:24:03.371Z,55
2019-01-21T08:25:02.046Z,55
2019-01-21T08:26:00.792Z,55
2019-01-21T08:26:59.328Z,55
2019-01-21T08:30:38.092Z,55
2019-01-21T08:31:36.647Z,55
2019-01-21T08:32:35.160Z,55
2019-01-21T08:33:33.679Z,60
2019-01-21T08:34:32.204Z,60
2019-01-21T08:35:30.744Z,60
2019-01-21T08:36:29.294Z,60
2019-01-21T08:37:27.844Z,60
2019-01-21T08:38:26.369Z,60
2019-01-21T08:39:24.890Z,60
2019-01-21T08:43:46.986Z,60
2019-01-21T08:44:45.533Z,60
2019-01-21T08:45:44.137Z,60
2019-01-21T08:46:42.674Z,65
2019-01-21T08:47:41.250Z,65
2019-01-21T08:48:39.783Z,65
2019-01-21T08:49:38.366Z,65
2019-01-21T08:50:36.909Z,65
2019-01-21T08:51:35.764Z,65
2019-01-21T08:53:58.317Z,60
2019-01-21T08:56:38.485Z,55
2019-01-21T08:57:36.997Z,60
2019-01-21T08:58:35.570Z,65
2019-01-21T08:59:34.158Z,65
2019-01-21T09:00:35.620Z,65
2019-01-21T09:01:34.191Z,65
2019-01-21T09:02:32.713Z,70
2019-01-21T09:03:31.410Z,70
2019-01-21T09:04:30.032Z,70
2019-01-21T09:09:16.929Z,70
2019-01-21T09:10:15.534Z,70
2019-01-21T09:11:14.361Z,70
2019-01-21T09:12:12.898Z,70
2019-01-21T09:13:11.444Z,70
2019-01-21T09:14:10.200Z,70
2019-01-21T09:15:08.757Z,70
2019-01-21T09:16:07.304Z,70
2019-01-21T09:17:06.165Z,70
2019-01-21T09:18:04.760Z,70
2019-01-21T09:19:03.300Z,70
2019-01-21T09:20:02.134Z,75
2019-01-21T09:21:00.682Z,75
2019-01-21T09:21:59.264Z,75
2019-01-21T09:22:57.978Z,75
2019-01-21T09:23:56.651Z,75
2019-01-21T09:24:55.197Z,75
2019-01-21T09:25:54.039Z,75
2019-01-21T09:26:52.585Z,75
2019-01-21T09:27:51.186Z,75
2019-01-21T09:30:31.802Z,65
2019-01-21T09:31:30.601Z,65
2019-01-21T09:32:29.137Z,70
2019-01-21T09:33:27.650Z,75
2019-01-21T09:34:26.252Z,75
2019-01-21T09:35:24.777Z,75
2019-01-21T09:36:23.436Z,75
2019-01-21T09:37:22.656Z,75
2019-01-21T09:38:21.267Z,75
2019-01-21T09:39:19.803Z,75
2019-01-21T09:40:18.561Z,75
2019-01-21T09:41:17.105Z,75
2019-01-21T09:42:15.717Z,75
2019-01-21T09:43:14.521Z,75
2019-01-21T09:44:13.048Z,75
2019-01-21T09:45:11.704Z,75
2019-01-21T09:46:10.535Z,75
2019-01-21T09:47:09.106Z,75
2019-01-21T09:58:52.355Z,80
2019-01-21T09:59:50.896Z,80
2019-01-21T10:00:49.401Z,75
2019-01-21T10:01:48.275Z,75
2019-01-21T10:02:46.813Z,75
2019-01-21T10:03:45.343Z,75
2019-01-21T10:04:44.124Z,75
2019-01-21T10:05:42.650Z,70
2019-01-21T10:06:41.263Z,75
2019-01-21T10:07:39.787Z,80
2019-01-21T10:08:38.377Z,80
2019-01-21T10:09:36.934Z,80
2019-01-21T10:12:17.373Z,80
2019-01-21T10:13:16.223Z,80
2019-01-21T10:14:14.823Z,75
2019-01-21T10:15:13.504Z,80
2019-01-21T10:16:12.139Z,75
2019-01-21T10:17:10.695Z,80
2019-01-21T10:18:09.335Z,80
2019-01-21T10:19:07.943Z,80
2019-01-21T10:20:06.592Z,80
2019-01-21T10:21:05.141Z,80
2019-01-21T10:22:03.826Z,80
2019-01-21T10:23:02.350Z,80
2019-01-21T10:24:00.911Z,80
2019-01-21T10:24:59.417Z,80
2019-01-21T10:25:57.987Z,80
2019-01-21T10:26:56.521Z,80
2019-01-21T10:27:55.070Z,80
2019-01-21T10:28:53.797Z,80
2019-01-21T10:31:34.324Z,85
2019-01-21T10:32:32.859Z,85
2019-01-21T10:33:31.393Z,85
2019-01-21T10:34:29.967Z,85
2019-01-21T10:35:28.522Z,85
2019-01-21T10:38:08.588Z,80
2019-01-21T10:39:07.169Z,80
2019-01-21T10:40:07.905Z,80
2019-01-21T10:41:04.474Z,85
2019-01-21T10:43:27.099Z,85
2019-01-21T10:44:25.772Z,85
2019-01-21T10:45:24.362Z,85
2019-01-21T10:46:22.905Z,80
2019-01-21T10:47:21.464Z,75
2019-01-21T10:48:20.265Z,80
2019-01-21T10:49:18.794Z,75
2019-01-21T10:50:17.325Z,80
2019-01-21T10:51:16.108Z,80
2019-01-21T10:52:14.818Z,80
2019-01-21T10:53:13.355Z,80
2019-01-21T10:54:12.014Z,80
2019-01-21T10:55:10.565Z,80
2019-01-21T10:56:09.092Z,80
2019-01-21T10:57:07.637Z,80
2019-01-21T10:58:06.265Z,80
2019-01-21T10:59:04.817Z,80
2019-01-21T11:00:03.341Z,80
2019-01-21T11:02:43.357Z,80
2019-01-21T11:05:23.889Z,75
2019-01-21T11:06:22.547Z,80
2019-01-21T11:09:02.591Z,80
2019-01-21T11:10:01.160Z,80
2019-01-21T11:10:59.843Z,80
2019-01-21T11:11:58.515Z,80
2019-01-21T11:12:57.073Z,80
2019-01-21T11:13:55.703Z,80
2019-01-21T11:14:54.547Z,80
2019-01-21T11:15:53.100Z,80
2019-01-21T11:16:51.668Z,80
2019-01-21T11:17:50.288Z,80
2019-01-21T11:20:31.686Z,80
2019-01-21T11:21:30.583Z,80
2019-01-21T11:22:29.126Z,80
2019-01-21T11:23:27.667Z,80
2019-01-21T11:27:06.645Z,80
2019-01-21T11:29:58.713Z,80
2019-01-21T11:30:57.266Z,80
2019-01-21T11:31:56.068Z,80
2019-01-21T11:32:54.732Z,80
2019-01-21T11:33:53.300Z,80
2019-01-21T11:34:52.102Z,80
2019-01-21T11:35:50.689Z,80
2019-01-21T11:36:49.231Z,80
2019-01-21T11:37:47.757Z,80
2019-01-21T11:40:27.863Z,80
2019-01-21T11:41:26.402Z,80
2019-01-21T11:42:24.949Z,80
2019-01-21T11:43:23.556Z,80
2019-01-21T11:44:22.165Z,80
2019-01-21T11:45:20.724Z,80
2019-01-21T11:46:19.250Z,80
2019-01-21T11:47:17.969Z,80
2019-01-21T11:48:16.653Z,80
2019-01-21T11:49:15.186Z,80
2019-01-21T11:50:13.852Z,80
2019-01-21T11:51:12.426Z,75
2019-01-21T11:52:10.947Z,80
2019-01-21T11:53:09.506Z,80
2019-01-21T11:54:08.038Z,80
2019-01-21T11:55:06.616Z,80
2019-01-21T11:56:05.138Z,80
2019-01-21T11:57:03.728Z,80
2019-01-21T11:58:02.383Z,80
2019-01-21T11:59:01.005Z,80
2019-01-21T11:59:59.693Z,80
2019-01-21T12:00:58.471Z,80
2019-01-21T12:01:57.012Z,80
2019-01-21T12:02:55.519Z,80
2019-01-21T12:03:54.078Z,80
2019-01-21T12:04:52.609Z,80
2019-01-21T12:05:51.155Z,80
2019-01-21T12:06:49.698Z,80
2019-01-21T12:07:48.261Z,80
2019-01-21T12:08:46.797Z,80
2019-01-21T12:09:45.339Z,80
2019-01-21T12:10:44.109Z,80
2019-01-21T12:11:42.741Z,80
2019-01-21T12:12:41.299Z,80
2019-01-21T12:13:39.955Z,80
2019-01-21T12:14:38.718Z,80
2019-01-21T12:15:37.274Z,80
2019-01-21T12:16:36.236Z,80
2019-01-21T12:17:34.780Z,80
2019-01-21T12:18:33.300Z,80
2019-01-21T12:19:32.056Z,80
2019-01-21T12:20:30.749Z,80
2019-01-21T12:21:29.271Z,80
2019-01-21T12:22:27.921Z,80
2019-01-21T12:23:26.551Z,80
2019-01-21T12:24:25.094Z,80
2019-01-21T12:25:23.850Z,80
2019-01-21T12:26:22.503Z,80
2019-01-21T12:27:21.043Z,80
2019-01-21T12:28:19.644Z,80
2019-01-21T12:29:18.503Z,80
2019-01-21T12:30:17.025Z,80
2019-01-21T12:31:15.534Z,80
2019-01-21T12:32:14.085Z,80
2019-01-21T12:33:12.637Z,80
2019-01-21T12:34:11.210Z,80
2019-01-21T12:35:09.712Z,80
2019-01-21T12:36:08.246Z,80
2019-01-21T12:37:06.837Z,80
2019-01-21T12:38:05.524Z,80
2019-01-21T12:39:04.343Z,80
2019-01-21T12:40:02.879Z,80
2019-01-21T12:41:01.554Z,80
2019-01-21T12:42:00.210Z,80
2019-01-21T12:42:58.735Z,80
2019-01-21T12:43:57.260Z,80
2019-01-21T12:44:55.800Z,80
2019-01-21T12:45:54.328Z,80
2019-01-21T12:46:52.909Z,80
2019-01-21T12:47:51.460Z,80
2019-01-21T12:48:49.980Z,80
2019-01-21T12:49:48.524Z,80
2019-01-21T12:50:47.075Z,80
2019-01-21T12:51:46.279Z,80
2019-01-21T12:52:44.502Z,80
2019-01-21T12:53:43.071Z,80
2019-01-21T12:54:41.589Z,80
2019-01-21T12:55:40.419Z,80
2019-01-21T12:56:39.014Z,80
2019-01-21T12:57:37.541Z,80
2019-01-21T12:58:36.093Z,80
2019-01-21T12:59:34.623Z,80
2019-01-21T13:00:33.134Z,80
2019-01-21T13:01:31.667Z,80
2019-01-21T13:02:30.799Z,80
2019-01-21T13:03:28.725Z,80
2019-01-21T13:04:27.311Z,80
2019-01-21T13:05:25.845Z,80
2019-01-21T13:06:24.359Z,80
2019-01-21T13:07:22.951Z,80
2019-01-21T13:08:21.518Z,80
2019-01-21T13:09:20.073Z,75
2019-01-21T13:10:18.767Z,75
2019-01-21T13:11:17.305Z,80
2019-01-21T13:12:15.977Z,80
2019-01-21T13:13:14.512Z,80
2019-01-21T13:14:13.052Z,80
2019-01-21T13:15:11.697Z,80
2019-01-21T13:16:10.327Z,80
2019-01-21T13:17:08.897Z,80
2019-01-21T13:18:07.449Z,80
2019-01-21T13:19:06.013Z,80
2019-01-21T13:20:04.631Z,75
2019-01-21T13:21:03.172Z,75
2019-01-21T13:22:01.835Z,75
2019-01-21T13:23:00.505Z,75
2019-01-21T13:23:59.047Z,75
2019-01-21T13:24:57.616Z,75
2019-01-21T13:25:56.444Z,75
2019-01-21T13:26:55.005Z,75
2019-01-21T13:27:53.524Z,75
2019-01-21T13:28:52.033Z,75
2019-01-21T13:29:50.548Z,75
2019-01-21T13:30:49.052Z,75
2019-01-21T13:31:47.610Z,70
2019-01-21T13:32:46.435Z,70
2019-01-21T13:33:44.983Z,75
2019-01-21T13:34:43.523Z,75
2019-01-21T13:35:42.303Z,75
2019-01-21T13:36:40.838Z,70
2019-01-21T13:37:39.462Z,75
2019-01-21T13:38:38.114Z,75
2019-01-21T13:39:36.683Z,75
2019-01-21T13:40:35.223Z,75
2019-01-21T13:41:33.951Z,75
2019-01-21T13:42:32.805Z,75
2019-01-21T13:43:30.960Z,75
2019-01-21T13:44:29.501Z,75
2019-01-21T13:45:28.482Z,75
2019-01-21T13:46:27.050Z,75
2019-01-21T13:47:25.581Z,75
2019-01-21T13:48:24.363Z,70
2019-01-21T13:49:22.876Z,70
2019-01-21T13:50:21.409Z,70
2019-01-21T13:51:19.955Z,70
2019-01-21T13:52:18.501Z,70
2019-01-21T13:53:17.043Z,70
2019-01-21T13:54:15.630Z,70
2019-01-21T13:55:14.302Z,70
2019-01-21T13:56:12.933Z,70
2019-01-21T13:57:11.576Z,70
2019-01-21T13:58:10.246Z,70
2019-01-21T13:59:08.885Z,70
2019-01-21T14:00:07.477Z,70
2019-01-21T14:01:06.129Z,70
2019-01-21T14:02:04.641Z,70
2019-01-21T14:03:03.190Z,70
2019-01-21T14:04:01.699Z,70
2019-01-21T14:05:00.230Z,70
2019-01-21T14:05:58.801Z,70
2019-01-21T14:06:57.349Z,70
2019-01-21T14:07:56.054Z,70
2019-01-21T14:08:54.683Z,70
2019-01-21T14:09:53.207Z,70
2019-01-21T14:10:51.947Z,70
2019-01-21T14:11:50.627Z,65
2019-01-21T14:14:31.085Z,65
2019-01-21T14:15:29.625Z,65
2019-01-21T14:16:28.351Z,65
2019-01-21T14:17:26.887Z,65
2019-01-21T14:18:25.422Z,65
2019-01-21T14:19:25.352Z,65
2019-01-21T14:20:22.717Z,65
2019-01-21T14:21:21.283Z,65
2019-01-21T14:22:19.792Z,65
2019-01-21T14:25:41.983Z,65
2019-01-21T14:26:39.586Z,65
2019-01-21T14:27:38.443Z,60
2019-01-21T14:28:37.016Z,60
2019-01-21T14:29:35.588Z,60
2019-01-21T14:30:34.260Z,60
2019-01-21T14:31:32.819Z,60
2019-01-21T14:34:07.837Z,60
2019-01-21T14:35:06.408Z,60
2019-01-21T14:36:04.935Z,60
2019-01-21T14:37:03.468Z,60
2019-01-21T14:38:01.992Z,60
2019-01-21T14:39:00.539Z,60
2019-01-21T14:39:59.025Z,55
2019-01-21T14:40:57.552Z,55
2019-01-21T14:41:56.113Z,55
2019-01-21T14:42:54.849Z,55
2019-01-21T14:43:53.391Z,55
2019-01-21T14:44:52.223Z,55
2019-01-21T14:45:50.912Z,55
2019-01-21T14:46:49.442Z,55
2019-01-21T14:47:48.047Z,55
2019-01-21T14:48:46.635Z,55
2019-01-21T14:49:45.198Z,50
2019-01-21T14:50:50.255Z,50
2019-01-21T14:51:42.285Z,50
2019-01-21T14:52:40.838Z,50
2019-01-21T14:53:39.619Z,50
2019-01-21T14:54:38.453Z,50
2019-01-21T14:55:36.998Z,50
2019-01-21T14:56:35.537Z,50
2019-01-21T14:57:34.275Z,50
2019-01-21T14:58:32.833Z,45
2019-01-21T14:59:31.362Z,45
2019-01-21T15:00:29.966Z,45
2019-01-21T15:01:28.485Z,45
2019-01-21T15:02:27.029Z,45
2019-01-21T15:03:25.709Z,45
2019-01-21T15:04:24.566Z,45
2019-01-21T15:05:23.125Z,45
2019-01-21T15:06:21.653Z,45
2019-01-21T15:07:20.447Z,45
2019-01-21T15:08:18.975Z,40
2019-01-21T15:09:17.564Z,40
2019-01-21T15:10:16.088Z,40
2019-01-21T15:11:14.620Z,40
2019-01-21T15:12:13.357Z,40
2019-01-21T15:13:12.240Z,40
2019-01-21T15:14:10.860Z,40
2019-01-21T15:15:09.440Z,40
2019-01-21T15:16:08.026Z,35
2019-01-21T15:17:06.669Z,35
2019-01-21T15:18:05.222Z,35
2019-01-21T15:19:03.911Z,35
2019-01-21T15:20:02.559Z,35
2019-01-21T15:21:01.144Z,35
2019-01-21T15:21:59.645Z,35
2019-01-21T15:22:58.604Z,35
2019-01-21T15:23:57.101Z,30
2019-01-21T15:24:55.702Z,30
2019-01-21T15:25:54.242Z,30
2019-01-21T15:26:52.779Z,30
2019-01-21T15:27:51.326Z,30
2019-01-21T15:28:49.847Z,30
2019-01-21T15:29:48.448Z,30
2019-01-21T15:30:46.945Z,25
2019-01-21T15:31:45.528Z,25
2019-01-21T15:32:44.033Z,25
2019-01-21T15:33:42.750Z,25
2019-01-21T15:34:41.188Z,25
2019-01-21T15:38:20.155Z,20
2019-01-21T15:39:18.691Z,20
2019-01-21T15:40:17.225Z,20
2019-01-21T15:41:16.098Z,20
2019-01-21T15:42:14.591Z,20
2019-01-21T15:43:13.111Z,20
2019-01-21T15:44:11.788Z,15
2019-01-21T15:45:10.609Z,15
2019-01-21T15:46:09.046Z,15
2019-01-21T16:06:24.787Z,0
2019-01-21T16:07:23.339Z,0
2019-01-21T16:08:21.911Z,0
2019-01-21T16:09:20.532Z,0
2019-01-21T16:10:19.040Z,0
2019-01-21T16:11:17.595Z,0
2019-01-21T16:12:16.434Z,0
2019-01-21T16:13:14.935Z,0
2019-01-21T16:14:13.455Z,0
2019-01-21T16:15:12.158Z,0
2019-01-21T16:16:10.767Z,0
2019-01-21T16:17:09.310Z,0
2019-01-21T16:18:07.868Z,0
2019-01-21T16:19:07.167Z,0
2019-01-21T16:20:05.818Z,0
2019-01-21T16:21:04.419Z,0
2019-01-21T16:22:03.175Z,0
2019-01-21T16:23:01.822Z,0
2019-01-21T16:24:00.614Z,0
2019-01-21T16:24:59.174Z,0
2019-01-21T16:25:57.697Z,0
2019-01-21T16:26:56.457Z,0
2019-01-21T16:27:55.582Z,0
2019-01-21T16:28:54.224Z,0
2019-01-21T16:29:52.917Z,0
2019-01-21T16:30:51.475Z,0
2019-01-21T16:31:50.029Z,0
2019-01-21T16:32:48.568Z,0
2019-01-21T16:33:47.123Z,0
2019-01-21T16:34:45.669Z,0
2019-01-21T16:35:44.220Z,0
2019-01-21T16:36:42.771Z,0
2019-01-21T16:37:41.327Z,0
2019-01-21T16:38:39.819Z,0
2019-01-21T16:39:38.380Z,0
2019-01-21T16:40:36.913Z,0
2019-01-21T16:41:35.493Z,0
2019-01-21T16:42:34.119Z,0
2019-01-21T16:43:32.787Z,0
2019-01-21T16:44:31.331Z,0
2019-01-21T16:45:29.984Z,0
2019-01-21T16:46:28.798Z,0
2019-01-21T16:47:27.344Z,0
2019-01-21T16:48:25.872Z,0
2019-01-21T16:49:24.422Z,0
2019-01-21T16:50:22.962Z,0
2019-01-21T16:51:21.803Z,0
2019-01-21T16:52:20.519Z,0
2019-01-21T16:53:19.048Z,0
2019-01-21T16:54:17.679Z,0
2019-01-21T16:55:16.489Z,0
2019-01-21T16:56:15.041Z,0
2019-01-21T16:57:13.626Z,0
2019-01-21T16:58:12.133Z,0
2019-01-21T16:59:10.658Z,0
2019-01-21T17:00:09.203Z,0
2019-01-21T17:01:07.900Z,0
2019-01-21T17:02:06.629Z,0
2019-01-21T17:03:05.159Z,0
2019-01-21T17:04:03.727Z,0
2019-01-21T17:05:02.453Z,0
2019-01-21T17:06:01.035Z,0
2019-01-21T17:06:59.612Z,0
2019-01-21T17:07:58.190Z,0
2019-01-21T17:08:56.749Z,0
2019-01-21T17:09:55.297Z,0
2019-01-21T17:10:53.980Z,0
2019-01-21T17:11:52.532Z,0
2019-01-21T17:12:51.328Z,0
2019-01-21T17:13:50.033Z,0
2019-01-21T17:14:48.707Z,0
2019-01-21T17:15:47.245Z,0